createdAt,value
2023-04-18T00:01:16.333Z,10.52
2023-04-18T00:02:48.409Z,10.52
2023-04-18T00:04:21.005Z,10.54
2023-04-18T00:05:53.524Z,10.54
2023-04-18T00:07:25.751Z,10.51
2023-04-18T00:08:57.672Z,10.49
2023-04-18T00:10:29.607Z,10.49
2023-04-18T00:12:02.249Z,10.49
2023-04-18T00:13:34.226Z,10.48
2023-04-18T00:15:09.170Z,10.49
2023-04-18T00:16:41.143Z,10.47
2023-04-18T00:18:16.399Z,10.45
2023-04-18T00:19:48.290Z,10.42
2023-04-18T00:21:20.278Z,10.37
2023-04-18T00:22:53.441Z,10.37
2023-04-18T00:24:25.441Z,10.32
2023-04-18T00:25:57.554Z,10.33
2023-04-18T00:27:29.527Z,10.32
2023-04-18T00:29:03.253Z,10.30
2023-04-18T00:30:35.219Z,10.28
2023-04-18T00:32:09.690Z,10.23
2023-04-18T00:33:41.647Z,10.20
2023-04-18T00:35:13.567Z,10.13
2023-04-18T00:36:45.509Z,10.15
2023-04-18T00:38:17.463Z,10.14
2023-04-18T00:39:49.361Z,10.09
2023-04-18T00:41:22.426Z,10.05
2023-04-18T00:42:54.338Z,10.05
2023-04-18T00:44:26.246Z,10.01
2023-04-18T00:46:01.675Z,10.01
2023-04-18T00:47:34.132Z,10.00
2023-04-18T00:49:06.721Z,10.00
2023-04-18T00:50:38.900Z,9.96
2023-04-18T00:52:13.089Z,9.95
2023-04-18T00:53:46.340Z,9.93
2023-04-18T00:55:18.752Z,9.92
2023-04-18T00:56:50.693Z,9.90
2023-04-18T00:58:23.917Z,9.92
2023-04-18T00:59:57.024Z,9.90
2023-04-18T01:01:29.391Z,9.86
2023-04-18T01:03:01.552Z,9.82
2023-04-18T01:04:33.779Z,9.81
2023-04-18T01:06:06.084Z,9.78
2023-04-18T01:07:41.852Z,9.76
2023-04-18T01:09:14.182Z,9.70
2023-04-18T01:10:46.082Z,9.65
2023-04-18T01:12:20.705Z,9.67
2023-04-18T01:14:03.152Z,9.66
2023-04-18T01:15:35.048Z,9.61
2023-04-18T01:17:08.292Z,9.61
2023-04-18T01:18:40.494Z,9.61
2023-04-18T01:20:14.046Z,9.57
2023-04-18T01:21:46.045Z,9.53
2023-04-18T01:23:19.549Z,9.51
2023-04-18T01:24:51.459Z,9.48
2023-04-18T01:26:23.417Z,9.45
2023-04-18T01:27:55.332Z,9.43
2023-04-18T01:29:27.182Z,9.35
2023-04-18T01:30:59.088Z,9.36
2023-04-18T01:32:31.192Z,9.36
2023-04-18T01:34:03.860Z,9.34
2023-04-18T01:35:36.034Z,9.35
2023-04-18T01:37:08.100Z,9.33
2023-04-18T01:38:40.056Z,9.33
2023-04-18T01:40:12.313Z,9.32
2023-04-18T01:41:44.393Z,9.27
2023-04-18T01:43:16.365Z,9.24
2023-04-18T01:44:48.316Z,9.24
2023-04-18T01:46:20.203Z,9.21
2023-04-18T01:47:52.252Z,9.20
2023-04-18T01:49:24.311Z,9.15
2023-04-18T01:50:56.276Z,9.18
2023-04-18T01:52:28.278Z,9.18
2023-04-18T01:54:00.287Z,9.12
2023-04-18T01:55:32.181Z,9.13
2023-04-18T01:57:04.470Z,9.11
2023-04-18T01:58:37.555Z,9.07
2023-04-18T02:00:10.044Z,9.05
2023-04-18T02:01:47.925Z,9.03
2023-04-18T02:03:20.371Z,9.01
2023-04-18T02:04:52.487Z,9.01
2023-04-18T02:06:24.533Z,9.00
2023-04-18T02:07:56.445Z,8.99
2023-04-18T02:09:28.464Z,8.97
2023-04-18T02:11:01.574Z,8.92
2023-04-18T02:12:34.565Z,8.83
2023-04-18T02:14:06.953Z,8.82
2023-04-18T02:15:38.860Z,8.85
2023-04-18T02:17:10.785Z,8.85
2023-04-18T02:18:43.710Z,8.81
2023-04-18T02:20:15.971Z,8.81
2023-04-18T02:21:47.856Z,8.77
2023-04-18T02:23:19.833Z,8.78
2023-04-18T02:24:52.673Z,8.74
2023-04-18T02:26:24.735Z,8.73
2023-04-18T02:27:57.688Z,8.72
2023-04-18T02:29:30.842Z,8.66
2023-04-18T02:31:02.786Z,8.59
2023-04-18T02:32:34.864Z,8.56
2023-04-18T02:34:07.494Z,8.56
2023-04-18T02:35:39.515Z,8.54
2023-04-18T02:37:11.649Z,8.52
2023-04-18T02:38:45.841Z,8.58
2023-04-18T02:40:18.150Z,8.54
2023-04-18T02:41:50.135Z,8.55
2023-04-18T02:43:22.002Z,8.48
2023-04-18T02:44:54.089Z,8.44
2023-04-18T02:46:26.336Z,8.45
2023-04-18T02:47:58.515Z,8.45
2023-04-18T02:49:30.471Z,8.42
2023-04-18T02:51:04.434Z,8.46
2023-04-18T02:52:38.581Z,8.48
2023-04-18T02:54:11.042Z,8.45
2023-04-18T02:55:56.857Z,8.44
2023-04-18T02:57:36.321Z,8.42
2023-04-18T02:59:26.881Z,8.35
2023-04-18T03:01:26.345Z,8.28
2023-04-18T03:03:03.066Z,8.28
2023-04-18T03:04:45.660Z,8.29
2023-04-18T03:06:17.628Z,8.30
2023-04-18T03:07:49.713Z,8.29
2023-04-18T03:09:22.363Z,8.26
2023-04-18T03:11:00.116Z,8.20
2023-04-18T03:12:34.367Z,8.22
2023-04-18T03:14:07.114Z,8.22
2023-04-18T03:15:46.860Z,8.22
2023-04-18T03:17:18.865Z,8.20
2023-04-18T03:18:53.704Z,8.17
2023-04-18T03:20:27.244Z,8.15
2023-04-18T03:21:59.400Z,8.12
2023-04-18T03:23:32.003Z,8.09
2023-04-18T03:25:07.264Z,8.08
2023-04-18T03:26:47.895Z,8.09
2023-04-18T03:28:21.429Z,8.09
2023-04-18T03:29:53.341Z,8.07
2023-04-18T03:31:25.450Z,8.09
2023-04-18T03:32:57.407Z,8.10
2023-04-18T03:34:29.642Z,8.09
2023-04-18T03:36:01.785Z,8.03
2023-04-18T03:37:33.949Z,8.01
2023-04-18T03:39:06.873Z,8.01
2023-04-18T03:40:39.723Z,8.03
2023-04-18T03:42:19.044Z,7.98
2023-04-18T03:43:51.004Z,7.95
2023-04-18T03:45:22.921Z,7.96
2023-04-18T03:46:56.228Z,7.93
2023-04-18T03:48:29.963Z,7.94
2023-04-18T03:50:06.193Z,7.91
2023-04-18T03:51:48.090Z,7.92
2023-04-18T03:53:20.267Z,7.92
2023-04-18T03:54:52.264Z,7.92
2023-04-18T03:56:29.060Z,7.83
2023-04-18T03:58:01.312Z,7.89
2023-04-18T03:59:34.568Z,7.85
2023-04-18T04:01:07.985Z,7.81
2023-04-18T04:02:40.071Z,7.84
2023-04-18T04:04:14.297Z,7.78
2023-04-18T04:05:46.911Z,7.79
2023-04-18T04:07:20.624Z,7.79
2023-04-18T04:08:52.540Z,7.80
2023-04-18T04:10:28.676Z,7.77
2023-04-18T04:12:00.659Z,7.81
2023-04-18T04:13:32.848Z,7.75
2023-04-18T04:15:05.254Z,7.76
2023-04-18T04:16:38.326Z,7.77
2023-04-18T04:18:11.097Z,7.76
2023-04-18T04:19:46.829Z,7.74
2023-04-18T04:21:22.634Z,7.69
2023-04-18T04:22:59.124Z,7.70
2023-04-18T04:24:33.543Z,7.71
2023-04-18T04:26:05.992Z,7.73
2023-04-18T04:27:49.868Z,7.65
2023-04-18T04:29:21.921Z,7.64
2023-04-18T04:30:55.741Z,7.63
2023-04-18T04:32:28.661Z,7.66
2023-04-18T04:34:00.805Z,7.69
2023-04-18T04:35:35.057Z,7.64
2023-04-18T04:37:08.336Z,7.66
2023-04-18T04:38:47.549Z,7.66
2023-04-18T04:40:20.162Z,7.61
2023-04-18T04:41:55.755Z,7.60
2023-04-18T04:43:29.442Z,7.64
2023-04-18T04:45:03.206Z,7.60
2023-04-18T04:46:39.624Z,7.59
2023-04-18T04:48:19.081Z,7.59
2023-04-18T04:49:51.065Z,7.60
2023-04-18T04:51:23.337Z,7.58
2023-04-18T04:52:55.998Z,7.52
2023-04-18T04:54:28.109Z,7.52
2023-04-18T04:56:00.348Z,7.53
2023-04-18T04:57:32.576Z,7.52
2023-04-18T04:59:05.383Z,7.54
2023-04-18T05:00:41.559Z,7.53
2023-04-18T05:02:13.587Z,7.53
2023-04-18T05:03:46.466Z,7.54
2023-04-18T05:05:20.113Z,7.52
2023-04-18T05:06:52.130Z,7.53
2023-04-18T05:08:24.278Z,7.53
2023-04-18T05:09:56.364Z,7.50
2023-04-18T05:11:28.370Z,7.49
2023-04-18T05:13:00.386Z,7.50
2023-04-18T05:14:32.488Z,7.51
2023-04-18T05:16:04.777Z,7.52
2023-04-18T05:17:36.941Z,7.53
2023-04-18T05:19:09.074Z,7.53
2023-04-18T05:20:41.281Z,7.57
2023-04-18T05:22:13.251Z,7.53
2023-04-18T05:23:45.289Z,7.54
2023-04-18T05:25:17.348Z,7.59
2023-04-18T05:26:49.364Z,7.60
2023-04-18T05:28:24.080Z,7.62
2023-04-18T05:29:56.141Z,7.62
2023-04-18T05:31:29.447Z,7.65
2023-04-18T05:33:01.605Z,7.62
2023-04-18T05:34:38.595Z,7.64
2023-04-18T05:36:11.101Z,7.62
2023-04-18T05:37:43.187Z,7.66
2023-04-18T05:39:15.153Z,7.68
2023-04-18T05:40:47.192Z,7.65
2023-04-18T05:42:19.152Z,7.67
2023-04-18T05:44:04.265Z,7.68
2023-04-18T05:45:37.259Z,7.69
2023-04-18T05:47:09.310Z,7.68
2023-04-18T05:48:41.602Z,7.70
2023-04-18T05:50:13.582Z,7.70
2023-04-18T05:51:46.404Z,7.77
2023-04-18T05:53:18.415Z,7.77
2023-04-18T05:54:51.219Z,7.77
2023-04-18T05:56:23.247Z,7.74
2023-04-18T05:57:55.201Z,7.74
2023-04-18T05:59:27.265Z,7.78
2023-04-18T06:00:59.316Z,7.79
2023-04-18T06:02:31.395Z,7.81
2023-04-18T06:04:03.729Z,7.80
2023-04-18T06:05:36.032Z,7.79
2023-04-18T06:07:08.624Z,7.85
2023-04-18T06:08:40.783Z,7.88
2023-04-18T06:10:13.842Z,7.91
2023-04-18T06:11:45.959Z,7.94
2023-04-18T06:13:17.909Z,7.94
2023-04-18T06:14:50.294Z,7.93
2023-04-18T06:16:22.732Z,7.95
2023-04-18T06:17:54.889Z,8.00
2023-04-18T06:19:26.917Z,7.97
2023-04-18T06:20:58.965Z,8.00
2023-04-18T06:22:31.190Z,8.06
2023-04-18T06:24:03.203Z,8.09
2023-04-18T06:25:35.306Z,8.17
2023-04-18T06:27:10.833Z,8.20
2023-04-18T06:28:49.722Z,8.23
2023-04-18T06:30:22.393Z,8.27
2023-04-18T06:31:54.468Z,8.28
2023-04-18T06:33:26.599Z,8.26
2023-04-18T06:34:58.623Z,8.29
2023-04-18T06:36:30.675Z,8.31
2023-04-18T06:38:02.740Z,8.33
2023-04-18T06:39:34.776Z,8.35
2023-04-18T06:41:06.977Z,8.37
2023-04-18T06:42:39.319Z,8.41
2023-04-18T06:44:11.311Z,8.41
2023-04-18T06:45:43.376Z,8.45
2023-04-18T06:47:15.450Z,8.51
2023-04-18T06:48:48.567Z,8.55
2023-04-18T06:50:21.497Z,8.56
2023-04-18T06:51:53.566Z,8.60
2023-04-18T06:53:25.615Z,8.65
2023-04-18T06:54:57.626Z,8.65
2023-04-18T06:56:30.043Z,8.63
2023-04-18T06:58:02.055Z,8.67
2023-04-18T06:59:35.870Z,8.69
2023-04-18T07:01:07.857Z,8.68
2023-04-18T07:02:40.675Z,8.73
2023-04-18T07:04:12.874Z,8.73
2023-04-18T07:05:45.415Z,8.78
2023-04-18T07:07:17.420Z,8.85
2023-04-18T07:08:49.494Z,8.90
2023-04-18T07:10:21.702Z,8.95
2023-04-18T07:11:53.794Z,8.95
2023-04-18T07:13:25.797Z,8.99
2023-04-18T07:14:57.882Z,9.07
2023-04-18T07:16:29.924Z,9.07
2023-04-18T07:18:02.246Z,9.10
2023-04-18T07:19:34.211Z,9.10
2023-04-18T07:21:09.578Z,9.08
2023-04-18T07:22:41.770Z,9.11
2023-04-18T07:24:13.980Z,9.21
2023-04-18T07:25:46.303Z,9.23
2023-04-18T07:27:18.359Z,9.27
2023-04-18T07:28:50.574Z,9.35
2023-04-18T07:30:22.529Z,9.37
2023-04-18T07:31:54.848Z,9.43
2023-04-18T07:33:27.018Z,9.48
2023-04-18T07:34:59.487Z,9.52
2023-04-18T07:36:31.832Z,9.52
2023-04-18T07:38:04.048Z,9.60
2023-04-18T07:39:36.608Z,9.66
2023-04-18T07:41:08.683Z,9.68
2023-04-18T07:42:40.825Z,9.83
2023-04-18T07:44:13.168Z,9.95
2023-04-18T07:45:46.025Z,10.02
2023-04-18T07:47:22.335Z,10.10
2023-04-18T07:48:54.611Z,10.23
2023-04-18T07:50:27.206Z,10.43
2023-04-18T07:51:59.275Z,10.64
2023-04-18T07:53:31.341Z,10.88
2023-04-18T07:55:03.294Z,10.98
2023-04-18T07:56:35.317Z,11.07
2023-04-18T07:58:07.407Z,11.11
2023-04-18T07:59:39.532Z,11.14
2023-04-18T08:01:14.394Z,11.22
2023-04-18T08:02:46.807Z,11.25
2023-04-18T08:04:19.164Z,11.34
2023-04-18T08:05:52.208Z,11.45
2023-04-18T08:07:24.148Z,11.48
2023-04-18T08:08:56.212Z,11.64
2023-04-18T08:10:28.472Z,11.73
2023-04-18T08:12:00.536Z,11.93
2023-04-18T08:13:32.803Z,12.01
2023-04-18T08:15:05.321Z,12.11
2023-04-18T08:16:37.968Z,12.20
2023-04-18T08:18:10.317Z,12.19
2023-04-18T08:19:42.551Z,12.28
2023-04-18T08:21:14.924Z,12.28
2023-04-18T08:23:04.700Z,12.17
2023-04-18T08:24:39.226Z,12.15
2023-04-18T08:26:11.207Z,12.18
2023-04-18T08:27:43.796Z,12.16
2023-04-18T08:29:16.178Z,12.15
2023-04-18T08:30:49.499Z,12.25
2023-04-18T08:32:21.593Z,12.31
2023-04-18T08:33:53.654Z,12.28
2023-04-18T08:35:25.678Z,12.33
2023-04-18T08:36:57.735Z,12.48
2023-04-18T08:38:29.894Z,12.57
2023-04-18T08:40:04.053Z,12.59
2023-04-18T08:41:38.101Z,12.41
2023-04-18T08:43:14.349Z,12.34
2023-04-18T08:44:47.550Z,12.28
2023-04-18T08:46:19.857Z,12.22
2023-04-18T08:47:52.459Z,11.98
2023-04-18T08:49:25.201Z,11.81
2023-04-18T08:50:58.949Z,11.86
2023-04-18T08:52:32.841Z,11.97
2023-04-18T08:54:06.551Z,12.16
2023-04-18T08:55:38.707Z,12.23
2023-04-18T08:57:12.851Z,12.37
2023-04-18T08:58:45.426Z,12.36
2023-04-18T09:00:18.342Z,12.50
2023-04-18T09:01:51.036Z,12.54
2023-04-18T09:03:40.808Z,12.50
2023-04-18T09:05:15.221Z,12.41
2023-04-18T09:06:53.424Z,12.19
2023-04-18T09:08:25.560Z,12.24
2023-04-18T09:09:58.167Z,12.10
2023-04-18T09:11:32.105Z,12.05
2023-04-18T09:13:04.663Z,12.09
2023-04-18T09:14:37.085Z,11.97
2023-04-18T09:16:09.172Z,11.95
2023-04-18T09:17:49.630Z,11.87
2023-04-18T09:19:22.058Z,11.83
2023-04-18T09:20:55.355Z,11.78
2023-04-18T09:22:28.106Z,11.87
2023-04-18T09:24:29.684Z,11.88
2023-04-18T09:26:01.700Z,11.96
2023-04-18T09:27:35.179Z,12.09
2023-04-18T09:29:07.301Z,12.20
2023-04-18T09:30:41.164Z,12.23
2023-04-18T09:32:27.390Z,12.24
2023-04-18T09:34:00.961Z,12.18
2023-04-18T09:35:32.985Z,12.22
2023-04-18T09:37:08.886Z,12.33
2023-04-18T09:38:41.651Z,12.37
2023-04-18T09:40:20.620Z,12.38
2023-04-18T09:41:59.468Z,12.37
2023-04-18T09:43:31.599Z,12.35
2023-04-18T09:45:08.615Z,12.39
2023-04-18T09:46:40.783Z,12.36
2023-04-18T09:48:12.940Z,12.39
2023-04-18T09:49:44.949Z,12.41
2023-04-18T09:51:16.968Z,12.41
2023-04-18T09:52:49.071Z,12.37
2023-04-18T09:54:24.332Z,12.02
2023-04-18T09:55:57.801Z,11.90
2023-04-18T09:57:31.303Z,11.83
2023-04-18T09:59:09.915Z,11.82
2023-04-18T10:00:42.243Z,11.88
2023-04-18T10:02:23.642Z,11.92
2023-04-18T10:03:56.621Z,11.96
2023-04-18T10:05:29.592Z,11.96
2023-04-18T10:07:02.292Z,12.02
2023-04-18T10:08:34.956Z,12.12
2023-04-18T10:10:07.717Z,12.13
2023-04-18T10:11:39.619Z,12.10
2023-04-18T10:13:12.232Z,12.15
2023-04-18T10:14:44.664Z,12.22
2023-04-18T10:16:17.329Z,12.21
2023-04-18T10:18:05.030Z,12.33
2023-04-18T10:19:38.954Z,12.32
2023-04-18T10:21:11.037Z,12.32
2023-04-18T10:22:43.643Z,12.49
2023-04-18T10:24:53.639Z,12.62
2023-04-18T10:26:47.263Z,12.70
2023-04-18T10:28:21.284Z,12.75
2023-04-18T10:29:54.082Z,12.76
2023-04-18T10:31:26.607Z,12.80
2023-04-18T10:32:58.799Z,12.91
2023-04-18T10:34:30.958Z,13.00
2023-04-18T10:36:09.299Z,13.18
2023-04-18T10:37:51.362Z,13.29
2023-04-18T10:39:25.479Z,13.27
2023-04-18T10:41:25.527Z,13.13
2023-04-18T10:42:57.512Z,13.16
2023-04-18T10:44:29.532Z,13.01
2023-04-18T10:46:20.476Z,12.97
2023-04-18T10:48:26.194Z,13.11
2023-04-18T10:49:59.232Z,13.09
2023-04-18T10:51:31.333Z,13.08
2023-04-18T10:53:03.342Z,13.04
2023-04-18T10:54:47.296Z,13.07
2023-04-18T10:56:19.342Z,13.22
2023-04-18T10:57:51.813Z,13.44
2023-04-18T10:59:25.384Z,13.51
2023-04-18T11:00:57.601Z,13.78
2023-04-18T11:02:32.601Z,13.76
2023-04-18T11:04:13.197Z,13.73
2023-04-18T11:05:45.765Z,13.79
2023-04-18T11:07:18.336Z,13.96
2023-04-18T11:08:50.529Z,14.12
2023-04-18T11:10:24.729Z,14.19
2023-04-18T11:12:07.950Z,14.26
2023-04-18T11:13:58.561Z,14.55
2023-04-18T11:15:31.253Z,14.57
2023-04-18T11:17:19.438Z,14.60
2023-04-18T11:18:51.609Z,14.61
2023-04-18T11:20:23.742Z,14.75
2023-04-18T11:22:00.830Z,14.68
2023-04-18T11:23:32.971Z,14.47
2023-04-18T11:25:08.774Z,14.36
2023-04-18T11:26:40.985Z,14.29
2023-04-18T11:28:17.090Z,14.22
2023-04-18T11:29:53.437Z,14.16
2023-04-18T11:31:25.731Z,14.17
2023-04-18T11:32:58.010Z,14.13
2023-04-18T11:34:31.259Z,14.11
2023-04-18T11:36:03.373Z,14.08
2023-04-18T11:37:37.050Z,13.97
2023-04-18T11:39:10.789Z,13.90
2023-04-18T11:40:49.624Z,13.84
2023-04-18T11:42:26.694Z,13.87
2023-04-18T11:43:58.884Z,13.78
2023-04-18T11:45:30.967Z,13.76
2023-04-18T11:47:02.998Z,13.72
2023-04-18T11:48:39.202Z,13.64
2023-04-18T11:50:13.466Z,13.63
2023-04-18T11:51:46.629Z,13.49
2023-04-18T11:53:35.269Z,13.46
2023-04-18T11:55:17.818Z,13.32
2023-04-18T11:56:49.943Z,13.30
2023-04-18T11:58:30.712Z,13.26
2023-04-18T12:00:03.163Z,13.31
2023-04-18T12:01:41.052Z,13.18
2023-04-18T12:03:17.270Z,13.17
2023-04-18T12:04:54.405Z,13.26
2023-04-18T12:06:28.557Z,13.26
2023-04-18T12:08:06.333Z,13.23
2023-04-18T12:09:39.277Z,13.29
2023-04-18T12:11:20.742Z,13.38
2023-04-18T12:12:59.084Z,13.32
2023-04-18T12:14:36.940Z,13.30
2023-04-18T12:16:09.026Z,13.30
2023-04-18T12:17:44.564Z,13.35
2023-04-18T12:19:17.326Z,13.34
2023-04-18T12:20:50.837Z,13.38
2023-04-18T12:22:40.326Z,13.23
2023-04-18T12:24:18.576Z,13.27
2023-04-18T12:25:59.500Z,13.25
2023-04-18T12:28:00.630Z,13.26
2023-04-18T12:29:32.840Z,13.26
2023-04-18T12:31:08.294Z,13.33
2023-04-18T12:32:40.504Z,13.37
2023-04-18T12:34:12.868Z,13.36
2023-04-18T12:35:46.898Z,13.36
2023-04-18T12:37:25.737Z,13.37
2023-04-18T12:38:57.712Z,13.36
2023-04-18T12:40:30.543Z,13.39
2023-04-18T12:42:02.811Z,13.46
2023-04-18T12:43:35.084Z,13.51
2023-04-18T12:45:09.851Z,13.45
2023-04-18T12:46:42.023Z,13.47
2023-04-18T12:48:14.340Z,13.41
2023-04-18T12:49:46.220Z,13.29
2023-04-18T12:51:18.281Z,13.40
2023-04-18T12:52:54.816Z,13.55
2023-04-18T12:54:26.859Z,13.83
2023-04-18T12:55:58.912Z,14.07
2023-04-18T12:57:31.864Z,14.25
2023-04-18T12:59:03.900Z,14.48
2023-04-18T13:00:36.147Z,14.61
2023-04-18T13:02:08.366Z,14.77
2023-04-18T13:03:40.713Z,14.95
2023-04-18T13:05:16.074Z,14.95
2023-04-18T13:06:48.180Z,15.09
2023-04-18T13:08:20.144Z,15.30
2023-04-18T13:09:52.306Z,15.43
2023-04-18T13:11:28.786Z,15.40
2023-04-18T13:13:01.081Z,15.47
2023-04-18T13:14:33.278Z,15.47
2023-04-18T13:16:06.029Z,15.68
2023-04-18T13:17:38.985Z,15.91
2023-04-18T13:19:11.051Z,15.97
2023-04-18T13:20:44.288Z,15.78
2023-04-18T13:22:17.360Z,15.40
2023-04-18T13:23:49.481Z,15.18
2023-04-18T13:25:22.057Z,15.17
2023-04-18T13:26:54.355Z,15.06
2023-04-18T13:28:26.471Z,14.97
2023-04-18T13:29:58.643Z,14.91
2023-04-18T13:31:31.713Z,14.86
2023-04-18T13:33:03.910Z,14.74
2023-04-18T13:34:39.638Z,14.64
2023-04-18T13:36:11.718Z,14.55
2023-04-18T13:37:44.243Z,14.47
2023-04-18T13:39:16.933Z,14.36
2023-04-18T13:40:52.031Z,14.34
2023-04-18T13:42:43.564Z,14.37
2023-04-18T13:44:15.805Z,14.51
2023-04-18T13:45:48.014Z,14.84
2023-04-18T13:47:20.437Z,15.08
2023-04-18T13:48:52.668Z,15.12
2023-04-18T13:50:24.755Z,15.26
2023-04-18T13:51:59.622Z,15.16
2023-04-18T13:53:31.534Z,15.04
2023-04-18T13:55:04.199Z,15.01
2023-04-18T13:56:36.159Z,14.94
2023-04-18T13:58:09.808Z,14.79
2023-04-18T13:59:42.021Z,14.73
2023-04-18T14:01:14.423Z,14.67
2023-04-18T14:02:46.473Z,14.61
2023-04-18T14:04:20.620Z,14.55
2023-04-18T14:05:52.716Z,14.47
2023-04-18T14:07:24.733Z,14.42
2023-04-18T14:08:59.658Z,14.33
2023-04-18T14:10:31.921Z,14.37
2023-04-18T14:12:04.124Z,14.31
2023-04-18T14:13:36.390Z,14.28
2023-04-18T14:15:09.231Z,14.30
2023-04-18T14:16:41.361Z,14.33
2023-04-18T14:18:13.423Z,14.42
2023-04-18T14:19:45.544Z,14.46
2023-04-18T14:21:17.641Z,14.68
2023-04-18T14:22:52.923Z,14.89
2023-04-18T14:24:25.360Z,15.08
2023-04-18T14:25:57.363Z,15.26
2023-04-18T14:27:29.330Z,15.38
2023-04-18T14:29:01.373Z,15.51
2023-04-18T14:30:33.466Z,15.63
2023-04-18T14:32:06.703Z,15.56
2023-04-18T14:33:38.821Z,15.61
2023-04-18T14:35:11.096Z,15.57
2023-04-18T14:36:43.093Z,15.51
2023-04-18T14:38:15.773Z,15.59
2023-04-18T14:39:48.735Z,15.66
2023-04-18T14:41:20.821Z,15.76
2023-04-18T14:42:52.805Z,15.73
2023-04-18T14:44:24.874Z,15.73
2023-04-18T14:45:59.026Z,15.76
2023-04-18T14:47:34.936Z,15.81
2023-04-18T14:49:07.040Z,15.81
2023-04-18T14:50:39.416Z,15.79
2023-04-18T14:52:11.461Z,15.75
2023-04-18T14:53:44.082Z,15.86
2023-04-18T14:55:16.082Z,15.87
2023-04-18T14:56:48.031Z,15.68
2023-04-18T14:58:20.124Z,15.61
2023-04-18T14:59:53.159Z,15.53
2023-04-18T15:01:25.162Z,15.52
2023-04-18T15:02:57.312Z,15.38
2023-04-18T15:04:29.455Z,15.25
2023-04-18T15:06:01.850Z,15.24
2023-04-18T15:07:34.623Z,15.14
2023-04-18T15:09:07.372Z,15.13
2023-04-18T15:10:40.599Z,15.12
2023-04-18T15:12:12.669Z,15.11
2023-04-18T15:13:45.003Z,15.06
2023-04-18T15:15:17.410Z,14.97
2023-04-18T15:16:50.053Z,14.90
2023-04-18T15:18:22.494Z,14.82
2023-04-18T15:19:54.592Z,14.75
2023-04-18T15:21:27.591Z,14.75
2023-04-18T15:22:59.586Z,14.69
2023-04-18T15:24:31.679Z,14.83
2023-04-18T15:26:03.904Z,14.97
2023-04-18T15:27:36.063Z,15.07
2023-04-18T15:29:11.095Z,15.19
2023-04-18T15:30:43.273Z,15.30
2023-04-18T15:32:15.501Z,15.32
2023-04-18T15:33:47.576Z,15.27
2023-04-18T15:35:19.677Z,15.33
2023-04-18T15:36:51.849Z,15.31
2023-04-18T15:38:24.062Z,15.30
2023-04-18T15:39:57.404Z,15.37
2023-04-18T15:41:29.554Z,15.36
2023-04-18T15:43:01.720Z,15.48
2023-04-18T15:44:33.685Z,15.51
2023-04-18T15:46:05.851Z,15.48
2023-04-18T15:47:42.071Z,15.49
2023-04-18T15:49:14.196Z,15.49
2023-04-18T15:50:51.072Z,15.51
2023-04-18T15:52:23.052Z,15.50
2023-04-18T15:53:55.281Z,15.38
2023-04-18T15:55:27.492Z,15.39
2023-04-18T15:56:59.759Z,15.44
2023-04-18T15:58:32.018Z,15.50
2023-04-18T16:00:07.254Z,15.50
2023-04-18T16:01:39.395Z,15.61
2023-04-18T16:03:11.525Z,15.45
2023-04-18T16:04:43.735Z,15.51
2023-04-18T16:06:16.043Z,15.47
2023-04-18T16:07:48.151Z,15.44
2023-04-18T16:09:20.354Z,15.46
2023-04-18T16:10:52.927Z,15.58
2023-04-18T16:12:24.967Z,15.62
2023-04-18T16:13:56.990Z,15.62
2023-04-18T16:15:31.393Z,15.72
2023-04-18T16:17:03.973Z,15.73
2023-04-18T16:18:36.040Z,15.85
2023-04-18T16:20:09.376Z,15.81
2023-04-18T16:21:41.480Z,15.76
2023-04-18T16:23:13.515Z,15.71
2023-04-18T16:24:45.563Z,15.61
2023-04-18T16:26:17.795Z,15.59
2023-04-18T16:27:49.828Z,15.52
2023-04-18T16:29:21.876Z,15.51
2023-04-18T16:30:55.592Z,15.49
2023-04-18T16:32:28.010Z,15.42
2023-04-18T16:34:00.273Z,15.46
2023-04-18T16:35:32.518Z,15.41
2023-04-18T16:37:04.468Z,15.45
2023-04-18T16:38:36.481Z,15.48
2023-04-18T16:40:13.085Z,15.54
2023-04-18T16:41:45.260Z,15.54
2023-04-18T16:43:17.364Z,15.56
2023-04-18T16:44:49.525Z,15.54
2023-04-18T16:46:21.533Z,15.50
2023-04-18T16:47:53.568Z,15.47
2023-04-18T16:49:26.373Z,15.43
2023-04-18T16:50:58.745Z,15.35
2023-04-18T16:52:31.658Z,15.38
2023-04-18T16:54:03.826Z,15.39
2023-04-18T16:55:36.444Z,15.37
2023-04-18T16:57:08.510Z,15.32
2023-04-18T16:58:40.932Z,15.29
2023-04-18T17:00:13.950Z,15.19
2023-04-18T17:01:46.082Z,15.21
2023-04-18T17:03:18.200Z,15.21
2023-04-18T17:04:50.525Z,15.13
2023-04-18T17:06:25.013Z,15.08
2023-04-18T17:07:57.050Z,15.04
2023-04-18T17:09:29.029Z,14.97
2023-04-18T17:11:02.476Z,14.92
2023-04-18T17:12:34.450Z,14.88
2023-04-18T17:14:06.589Z,14.88
2023-04-18T17:15:38.730Z,14.85
2023-04-18T17:17:10.806Z,14.80
2023-04-18T17:18:42.780Z,14.79
2023-04-18T17:20:16.277Z,14.77
2023-04-18T17:21:49.345Z,14.69
2023-04-18T17:23:22.074Z,14.65
2023-04-18T17:24:54.082Z,14.53
2023-04-18T17:26:26.902Z,14.54
2023-04-18T17:28:00.970Z,14.53
2023-04-18T17:29:33.048Z,14.48
2023-04-18T17:31:05.295Z,14.44
2023-04-18T17:32:42.185Z,14.42
2023-04-18T17:34:14.181Z,14.38
2023-04-18T17:35:46.227Z,14.33
2023-04-18T17:37:19.872Z,14.36
2023-04-18T17:38:51.942Z,14.32
2023-04-18T17:40:24.175Z,14.32
2023-04-18T17:41:56.247Z,14.28
2023-04-18T17:43:28.363Z,14.28
2023-04-18T17:45:02.546Z,14.28
2023-04-18T17:46:34.737Z,14.18
2023-04-18T17:48:06.921Z,14.15
2023-04-18T17:49:39.050Z,14.11
2023-04-18T17:51:11.152Z,14.16
2023-04-18T17:52:43.427Z,14.12
2023-04-18T17:54:15.628Z,14.07
2023-04-18T17:55:50.809Z,14.04
2023-04-18T17:57:23.791Z,14.02
2023-04-18T17:58:56.845Z,14.03
2023-04-18T18:00:28.981Z,13.96
2023-04-18T18:02:00.967Z,13.95
2023-04-18T18:03:33.216Z,13.86
2023-04-18T18:05:05.823Z,13.84
2023-04-18T18:06:37.931Z,13.81
2023-04-18T18:08:10.419Z,13.78
2023-04-18T18:09:42.411Z,13.76
2023-04-18T18:11:14.463Z,13.75
2023-04-18T18:12:46.573Z,13.72
2023-04-18T18:14:18.556Z,13.71
2023-04-18T18:15:50.619Z,13.67
2023-04-18T18:17:32.250Z,13.68
2023-04-18T18:19:04.958Z,13.64
2023-04-18T18:20:36.833Z,13.60
2023-04-18T18:22:08.790Z,13.55
2023-04-18T18:23:41.583Z,13.54
2023-04-18T18:25:13.606Z,13.50
2023-04-18T18:26:46.004Z,13.45
2023-04-18T18:28:18.094Z,13.48
2023-04-18T18:29:50.729Z,13.44
2023-04-18T18:31:25.970Z,13.41
2023-04-18T18:32:58.059Z,13.34
2023-04-18T18:34:32.280Z,13.35
2023-04-18T18:36:04.560Z,13.30
2023-04-18T18:37:36.565Z,13.33
2023-04-18T18:39:08.763Z,13.24
2023-04-18T18:40:41.189Z,13.26
2023-04-18T18:42:13.234Z,13.25
2023-04-18T18:43:45.224Z,13.17
2023-04-18T18:45:18.034Z,13.16
2023-04-18T18:46:50.105Z,13.14
2023-04-18T18:48:22.376Z,13.11
2023-04-18T18:49:54.444Z,13.09
2023-04-18T18:51:26.658Z,13.08
2023-04-18T18:52:58.754Z,13.05
2023-04-18T18:54:30.924Z,12.99
2023-04-18T18:56:03.090Z,12.99
2023-04-18T18:57:35.191Z,12.98
2023-04-18T18:59:07.198Z,13.00
2023-04-18T19:00:39.259Z,12.93
2023-04-18T19:02:11.988Z,12.93
2023-04-18T19:03:44.134Z,12.93
2023-04-18T19:05:17.227Z,12.88
2023-04-18T19:06:49.337Z,12.84
2023-04-18T19:08:21.397Z,12.84
2023-04-18T19:09:55.496Z,12.83
2023-04-18T19:11:28.166Z,12.82
2023-04-18T19:13:00.745Z,12.80
2023-04-18T19:14:33.118Z,12.81
2023-04-18T19:16:05.671Z,12.79
2023-04-18T19:17:37.757Z,12.77
2023-04-18T19:19:10.433Z,12.77
2023-04-18T19:20:42.463Z,12.72
2023-04-18T19:22:14.500Z,12.63
2023-04-18T19:23:46.534Z,12.62
2023-04-18T19:25:18.488Z,12.58
2023-04-18T19:26:50.379Z,12.58
2023-04-18T19:28:23.228Z,12.58
2023-04-18T19:29:55.108Z,12.56
2023-04-18T19:31:27.181Z,12.50
2023-04-18T19:32:59.272Z,12.44
2023-04-18T19:34:31.309Z,12.48
2023-04-18T19:36:03.546Z,12.43
2023-04-18T19:37:36.265Z,12.45
2023-04-18T19:39:08.437Z,12.45
2023-04-18T19:40:40.500Z,12.41
2023-04-18T19:42:12.589Z,12.38
2023-04-18T19:43:46.044Z,12.36
2023-04-18T19:45:18.259Z,12.33
2023-04-18T19:46:50.206Z,12.32
2023-04-18T19:48:22.314Z,12.27
2023-04-18T19:49:54.332Z,12.21
2023-04-18T19:51:27.910Z,12.23
2023-04-18T19:52:59.971Z,12.21
2023-04-18T19:54:33.734Z,12.18
2023-04-18T19:56:05.759Z,12.17
2023-04-18T19:57:39.738Z,12.14
2023-04-18T19:59:11.866Z,12.14
2023-04-18T20:00:43.899Z,12.10
2023-04-18T20:02:15.882Z,12.06
2023-04-18T20:03:48.284Z,12.09
2023-04-18T20:05:20.795Z,12.08
2023-04-18T20:06:53.787Z,12.08
2023-04-18T20:08:25.600Z,12.07
2023-04-18T20:09:57.736Z,12.04
2023-04-18T20:11:29.842Z,12.01
2023-04-18T20:13:02.449Z,11.99
2023-04-18T20:14:34.481Z,12.00
2023-04-18T20:16:08.002Z,11.98
2023-04-18T20:17:40.076Z,11.95
2023-04-18T20:19:12.903Z,11.90